logo
Rechercher aéroport 
image banner adimage banner adimage banner ad
image banner ad

PK1Q9 - Mili

Situé à Mili Island, Marshall Islands

ICAO - , IATA -

Données fournies par Airmate  

Information générale

Coordonnées: N6°4'60" E171°43'60"
Élévation : 4 feet MSL.
Variation magnétique : +10° East
Voir autres Aéroports à Mili

Données opérationnelles

Special qualification required
Heure actuelle UTC:
Heure actuelle locale:
Météo à : - ( 0 km )
METAR: KM08 230005Z AUTO 00000KT 10SM CLR 22/21 A2993 RMK A01
Voir NOTAMs / SUP AIP / TFR affectant cet aéroport [VIEW]
Fréquences de communication: [VIEW]

Pistes:

Identifiant RWYQFULongueur (ft)Largeur (ft)SurfaceLDA (ft)
05285075GRASS
23285075GRASS

Coordonnées de l'aéroport

Adresse: Mili Island Marshall Islands

Vue satellite de PK1Q9